首页
METAR-TAF:

METAR-TAF

机场 :

伯明翰-沙特尔斯沃思国际机场

伯明翰, 阿拉巴马州, 美国

纬度: 33-33-56N, 经度: 086-44-42W, 海拔: 196米

当前天气观测

该预报发布于1小时和6分钟前的13:53 UTC
静风
温度 4°C
湿度 87%
气压 1022 hPa
能見度: 16.1公里
多云层高于5000英尺
阴天层高于7000英尺

METAR: KBHM 261353Z 00000KT 10SM BKN050 OVC070 04/02 A3017 RMK AO2 SLP220 T00440017

时间: 08:59 (14:59 UTC)

预报

该预报发布于3小时和39分钟前的11:20 UTC
预报有效从26日的 12点(UTC)到 27日的 12点(UTC)
风速节,风向
能見度: 10公里
多云层高于10000英尺
几率 30%
从 27日的 00点(UTC)到 27日的 03点(UTC)
能見度: 6.4公里
阴天层高于2500英尺
小雨
从 27日的 0300点(UTC)
风速3节,风向多变
能見度: 10公里
阴天层高于4000英尺
小雨
从 27日的 0500点(UTC)
风速3节,风向多变
能見度: 10公里
阴天层高于2000英尺
小雨
从 27日的 0700点(UTC)
风速3节,风向多变
能見度: 8.0公里
阴天层高于800英尺
小雨
从 27日的 1000点(UTC)
风速3节,风向多变
能見度: 6.4公里
阴天层高于500英尺
小雨

TAF: KBHM 261120Z 2612/2712 00000KT P6SM BKN100 PROB30 2700/2703 4SM -RA OVC025 FM270300 VRB03KT P6SM -RA OVC040 FM270500 VRB03KT P6SM -RA OVC020 FM270700 VRB03KT 5SM -RA OVC008 FM271000 VRB03KT 4SM -RA OVC005

超过4000个机场的气象观测和天气预报(METAR&TAF报告)。

可查询的气象台以黄色和红色小点在地图上表示。

将鼠标移到小点上方,可查看气象台名称。

然后点击查看天气观测和预报。

如需切换地图:点击带黑十字的绿色按钮放大地图;点击带横线的绿色按钮缩小地图;或者点击绿色箭头查看邻近地区的地图。


METAR-TAF: